Time;durP1;ratioP1;P1;durP2;ratioP2;P2;SDS_P1;SDS_P2;PMS_P1;PMS_P2;Temp;Humidity;BMP_temperature;BMP_pressure;BME280_temperature;BME280_humidity;BME280_pressure;Samples;Min_cycle;Max_cycle;Signal;HPM_P1;HPM_P2
2022/10/18 04:00:49;;;;;;;13.17;6.70;;;15.70;99.90;;;;;;5805260;23;20998;-62
2022/10/18 04:03:15;;;;;;;7.50;6.47;;;15.70;99.90;;;;;;4955450;28;20442;-63
2022/10/18 04:05:42;;;;;;;18.73;7.37;;;15.70;99.90;;;;;;4955401;28;20452;-63
2022/10/18 04:08:09;;;;;;;13.93;7.93;;;15.70;99.90;;;;;;4954891;28;20942;-63
2022/10/18 04:10:37;;;;;;;9.20;6.00;;;15.70;99.90;;;;;;4955167;28;20530;-64
2022/10/18 04:13:04;;;;;;;13.50;6.10;;;15.80;99.90;;;;;;4955099;29;20455;-63
2022/10/18 04:15:31;;;;;;;13.43;7.00;;;15.80;99.90;;;;;;4955132;29;20451;-64
2022/10/18 04:17:59;;;;;;;7.70;6.67;;;15.80;99.90;;;;;;4955032;28;20455;-63
2022/10/18 04:20:26;;;;;;;9.73;6.40;;;15.80;99.90;;;;;;4955025;28;20456;-63
2022/10/18 04:22:54;;;;;;;11.20;6.90;;;15.80;99.90;;;;;;4958347;29;20467;-63
2022/10/18 04:25:20;;;;;;;8.43;6.27;;;15.80;99.90;;;;;;4958628;29;20464;-63
2022/10/18 04:27:48;;;;;;;7.10;6.53;;;15.90;99.90;;;;;;4958489;29;20459;-63
2022/10/18 04:30:15;;;;;;;10.63;6.30;;;15.90;99.90;;;;;;4958053;29;20946;-63
2022/10/18 04:32:42;;;;;;;6.97;6.27;;;16.00;99.90;;;;;;4958102;29;20840;-64
2022/10/18 04:35:10;;;;;;;7.83;6.90;;;16.00;99.90;;;;;;4958333;28;20518;-63
2022/10/18 04:37:37;;;;;;;8.77;6.00;;;16.10;99.90;;;;;;4958206;29;20483;-63
2022/10/18 04:40:04;;;;;;;8.20;5.43;;;16.10;99.90;;;;;;4958278;28;20464;-63
2022/10/18 04:42:31;;;;;;;11.07;7.50;;;16.20;99.90;;;;;;4958132;29;20490;-64
2022/10/18 04:44:58;;;;;;;11.70;5.73;;;16.20;99.90;;;;;;4958261;28;20514;-64
2022/10/18 04:47:24;;;;;;;13.53;6.50;;;16.30;99.90;;;;;;4957885;29;20943;-63
2022/10/18 04:49:51;;;;;;;8.57;6.00;;;16.20;99.90;;;;;;4958207;28;20515;-63
2022/10/18 04:52:19;;;;;;;8.07;6.80;;;16.20;99.90;;;;;;4958082;29;20475;-62
2022/10/18 04:54:45;;;;;;;7.07;5.80;;;16.10;99.90;;;;;;4958075;28;20463;-61
2022/10/18 04:57:12;;;;;;;6.77;5.27;;;16.20;99.90;;;;;;4958284;29;20479;-61
2022/10/18 04:59:39;;;;;;;8.33;5.63;;;16.20;99.90;;;;;;4957954;29;20939;-61
2022/10/18 05:02:05;;;;;;;5.73;5.27;;;16.20;99.90;;;;;;4957501;29;20515;-62
2022/10/18 05:04:32;;;;;;;10.23;6.40;;;16.30;99.90;;;;;;4958280;29;20464;-64
2022/10/18 05:06:59;;;;;;;10.20;6.20;;;16.30;99.90;;;;;;4958228;29;20452;-64
2022/10/18 05:09:27;;;;;;;6.53;6.03;;;16.30;99.90;;;;;;4958256;29;20470;-63
2022/10/18 05:11:54;;;;;;;8.43;5.73;;;16.20;99.90;;;;;;4958085;29;20530;-63
2022/10/18 05:14:20;;;;;;;7.27;6.70;;;16.20;99.90;;;;;;4958001;29;20496;-63
2022/10/18 05:16:47;;;;;;;7.50;5.57;;;16.30;99.90;;;;;;4958120;28;20531;-63
2022/10/18 05:19:14;;;;;;;7.90;6.00;;;16.30;99.90;;;;;;4958067;29;20476;-63
2022/10/18 05:21:40;;;;;;;7.80;6.07;;;16.20;99.90;;;;;;4958218;29;20479;-62
2022/10/18 05:24:07;;;;;;;8.87;6.23;;;16.20;99.90;;;;;;4957968;29;20444;-62
2022/10/18 05:26:35;;;;;;;9.57;6.20;;;16.20;99.90;;;;;;4957711;29;20467;-62
2022/10/18 05:29:02;;;;;;;10.40;6.13;;;16.10;99.90;;;;;;4957730;29;20456;-64
2022/10/18 05:31:28;;;;;;;6.83;6.13;;;16.10;99.90;;;;;;4957388;29;20471;-64
2022/10/18 05:33:55;;;;;;;11.70;6.20;;;16.00;99.90;;;;;;4957510;28;20510;-63
2022/10/18 05:36:24;;;;;;;8.70;7.30;;;16.00;99.90;;;;;;4957342;28;20479;-63
2022/10/18 05:38:52;;;;;;;9.57;7.30;;;16.00;99.90;;;;;;4957575;28;20554;-63
2022/10/18 05:41:19;;;;;;;10.73;6.97;;;16.00;99.90;;;;;;4958250;28;20475;-63
2022/10/18 05:43:47;;;;;;;9.23;6.23;;;16.00;99.90;;;;;;4958398;29;20443;-63
2022/10/18 05:46:14;;;;;;;15.03;7.00;;;16.00;99.90;;;;;;4957668;28;20943;-64
2022/10/18 05:48:40;;;;;;;8.23;6.40;;;15.90;99.90;;;;;;4958038;29;20609;-64
2022/10/18 05:51:07;;;;;;;9.50;6.53;;;16.00;99.90;;;;;;4957306;29;20480;-63
2022/10/18 05:53:34;;;;;;;10.90;8.10;;;15.90;99.90;;;;;;4957809;28;20460;-64
2022/10/18 05:56:01;;;;;;;10.70;7.10;;;15.90;99.90;;;;;;4957520;29;20455;-64
2022/10/18 05:58:28;;;;;;;5.97;5.47;;;15.90;99.90;;;;;;4957626;29;20861;-63
2022/10/18 06:00:58;;;;;;;6.80;6.20;;;15.90;99.90;;;;;;4957453;28;20523;-64
2022/10/18 06:03:26;;;;;;;7.57;6.10;;;15.90;99.90;;;;;;4957275;29;20459;-63
2022/10/18 06:05:53;;;;;;;6.70;6.10;;;15.90;99.90;;;;;;4957294;28;20455;-63
2022/10/18 06:08:19;;;;;;;9.37;6.30;;;15.90;99.90;;;;;;4957120;29;20467;-65
2022/10/18 06:10:46;;;;;;;7.57;6.80;;;15.90;99.90;;;;;;4956758;28;20543;-65
2022/10/18 06:13:12;;;;;;;7.67;7.07;;;16.00;99.90;;;;;;4956812;28;20534;-64
2022/10/18 06:15:40;;;;;;;7.73;6.33;;;16.00;99.90;;;;;;4957025;29;20462;-64
2022/10/18 06:18:08;;;;;;;9.87;6.30;;;16.00;99.90;;;;;;4957176;29;20484;-64
2022/10/18 06:20:34;;;;;;;8.67;6.57;;;16.10;99.90;;;;;;4956653;28;20479;-64
2022/10/18 06:23:01;;;;;;;10.00;6.60;;;16.10;99.90;;;;;;4956811;29;20862;-64
2022/10/18 06:25:27;;;;;;;14.83;6.40;;;16.20;99.90;;;;;;4956908;28;20452;-64
2022/10/18 06:27:54;;;;;;;10.60;6.17;;;16.20;99.90;;;;;;4957551;29;20487;-63
2022/10/18 06:30:21;;;;;;;10.90;6.70;;;16.30;99.90;;;;;;4957473;29;20455;-64
2022/10/18 06:32:47;;;;;;;11.00;5.77;;;16.30;99.90;;;;;;4957774;28;20487;-64
2022/10/18 06:35:16;;;;;;;9.63;6.40;;;16.40;99.90;;;;;;4957596;29;20527;-63
2022/10/18 06:37:42;;;;;;;8.80;6.43;;;16.50;99.90;;;;;;4956471;28;20475;-63
2022/10/18 06:40:10;;;;;;;9.10;6.40;;;16.70;99.90;;;;;;4956630;29;20511;-63
2022/10/18 06:42:37;;;;;;;6.90;5.87;;;16.80;99.90;;;;;;4957660;28;20538;-63
2022/10/18 06:45:04;;;;;;;7.47;5.50;;;16.90;99.90;;;;;;4955895;28;20459;-63
2022/10/18 06:47:31;;;;;;;10.37;6.50;;;17.00;99.90;;;;;;4956130;29;20439;-63
2022/10/18 06:49:58;;;;;;;8.83;5.50;;;17.10;99.90;;;;;;4956030;28;20506;-63
2022/10/18 06:52:26;;;;;;;7.13;5.43;;;17.30;99.90;;;;;;4955646;28;20908;-63
2022/10/18 06:54:53;;;;;;;10.33;5.60;;;17.40;99.90;;;;;;4955930;28;20459;-63
2022/10/18 06:57:20;;;;;;;8.33;5.67;;;17.50;99.90;;;;;;4955799;28;20484;-63
2022/10/18 06:59:47;;;;;;;7.17;6.40;;;17.50;99.90;;;;;;4955561;29;20936;-64
2022/10/18 07:02:16;;;;;;;6.20;4.80;;;17.60;99.90;;;;;;4955650;29;20487;-63
2022/10/18 07:04:43;;;;;;;13.47;6.00;;;17.70;99.90;;;;;;4956156;29;20452;-63
2022/10/18 07:07:09;;;;;;;7.70;5.13;;;17.70;99.90;;;;;;4955979;29;20455;-63
2022/10/18 07:09:37;;;;;;;6.53;5.77;;;17.70;99.90;;;;;;4955877;28;20463;-62
2022/10/18 07:12:04;;;;;;;7.57;5.70;;;17.80;99.90;;;;;;4956282;28;20655;-63
2022/10/18 07:14:31;;;;;;;10.13;5.33;;;17.80;99.90;;;;;;4955425;29;20460;-63
2022/10/18 07:16:59;;;;;;;7.30;4.90;;;17.90;99.90;;;;;;4956399;29;20475;-63
2022/10/18 07:19:25;;;;;;;10.13;5.67;;;17.90;99.90;;;;;;4955730;28;20451;-63
2022/10/18 07:21:52;;;;;;;15.03;5.60;;;18.00;99.90;;;;;;4955574;29;20482;-63
2022/10/18 07:24:19;;;;;;;8.10;5.13;;;18.00;99.90;;;;;;4955738;29;20518;-63
2022/10/18 07:26:47;;;;;;;5.63;5.13;;;18.10;99.90;;;;;;4955665;29;20439;-63
2022/10/18 07:29:13;;;;;;;8.50;5.37;;;18.20;99.90;;;;;;4955535;29;20592;-63
2022/10/18 07:31:40;;;;;;;7.70;6.00;;;18.20;99.90;;;;;;4955407;29;20480;-63
2022/10/18 07:34:08;;;;;;;5.60;5.10;;;18.20;99.90;;;;;;4955123;29;20935;-63
2022/10/18 07:36:35;;;;;;;10.93;5.87;;;18.30;99.90;;;;;;4955371;29;20483;-63
2022/10/18 07:39:02;;;;;;;6.43;4.83;;;18.30;99.90;;;;;;4955399;29;20868;-63
2022/10/18 07:41:30;;;;;;;8.27;5.00;;;18.40;99.90;;;;;;4955392;29;20480;-63
2022/10/18 07:43:58;;;;;;;5.10;4.60;;;18.50;99.90;;;;;;4955201;29;20538;-63
2022/10/18 07:46:25;;;;;;;7.30;5.53;;;18.50;99.90;;;;;;4955764;29;20459;-63
2022/10/18 07:48:52;;;;;;;9.63;5.50;;;18.60;99.90;;;;;;4955502;28;20510;-63
2022/10/18 07:51:20;;;;;;;7.77;5.67;;;18.70;99.90;;;;;;4955069;29;20986;-63
2022/10/18 07:53:47;;;;;;;8.23;5.20;;;18.80;99.90;;;;;;4955291;29;20455;-63
2022/10/18 07:56:15;;;;;;;4.83;4.43;;;18.90;99.90;;;;;;4956017;28;20466;-63
2022/10/18 07:58:43;;;;;;;5.87;3.83;;;19.00;99.90;;;;;;4958887;29;20518;-63
2022/10/18 08:01:11;;;;;;;5.33;4.40;;;19.20;99.90;;;;;;4958660;29;20483;-63
2022/10/18 08:03:38;;;;;;;5.30;4.57;;;19.40;99.90;;;;;;4958951;28;20510;-63
2022/10/18 08:06:07;;;;;;;4.73;3.90;;;19.60;99.90;;;;;;4958764;29;20514;-63
2022/10/18 08:08:35;;;;;;;14.63;5.07;;;19.70;99.90;;;;;;4958573;29;21136;-63
2022/10/18 08:11:02;;;;;;;4.80;4.30;;;19.90;99.90;;;;;;4958284;28;20966;-64
2022/10/18 08:13:29;;;;;;;4.90;4.40;;;20.10;99.90;;;;;;4958642;28;20462;-63
2022/10/18 08:16:00;;;;;;;6.87;5.00;;;20.30;99.90;;;;;;4958848;29;20463;-63
2022/10/18 08:18:28;;;;;;;5.77;4.10;;;20.50;99.90;;;;;;4958665;29;20883;-63
2022/10/18 08:20:55;;;;;;;5.30;4.30;;;20.60;99.90;;;;;;4958597;29;20475;-63
2022/10/18 08:23:21;;;;;;;5.10;3.57;;;20.70;99.90;;;;;;4958659;28;20533;-63
2022/10/18 08:25:48;;;;;;;5.03;4.13;;;20.70;99.90;;;;;;4958581;29;20803;-63
2022/10/18 08:28:16;;;;;;;5.13;4.23;;;20.80;99.90;;;;;;4958150;29;20459;-63
2022/10/18 08:30:43;;;;;;;6.50;4.70;;;20.90;99.90;;;;;;4958320;28;20837;-63
2022/10/18 08:33:10;;;;;;;8.47;4.60;;;20.90;99.90;;;;;;4958230;29;20491;-63
2022/10/18 08:35:38;;;;;;;4.33;4.03;;;21.00;99.90;;;;;;4958237;29;20464;-63
2022/10/18 08:38:04;;;;;;;5.43;4.80;;;21.00;99.90;;;;;;4958078;29;20482;-63
2022/10/18 08:40:32;;;;;;;5.23;4.60;;;21.10;99.90;;;;;;4958151;29;20486;-63
2022/10/18 08:43:05;;;;;;;5.27;4.10;;;21.10;99.90;;;;;;4958293;29;20459;-63
2022/10/18 08:45:36;;;;;;;7.20;4.30;;;21.10;99.90;;;;;;4958141;29;20447;-63
2022/10/18 08:48:05;;;;;;;5.33;4.50;;;21.10;99.90;;;;;;4958130;29;20440;-63
2022/10/18 08:50:36;;;;;;;6.63;3.87;;;21.10;99.90;;;;;;4957792;28;20514;-63
2022/10/18 08:53:13;;;;;;;5.00;3.87;;;21.20;99.90;;;;;;4957978;29;20444;-63
2022/10/18 08:55:44;;;;;;;4.47;3.90;;;21.30;99.90;;;;;;4958012;29;20448;-63
2022/10/18 08:58:16;;;;;;;6.13;4.03;;;21.50;99.90;;;;;;4957895;29;20471;-63
2022/10/18 09:00:50;;;;;;;6.00;3.73;;;21.80;99.90;;;;;;4957432;29;20975;-63
2022/10/18 09:03:27;;;;;;;10.00;4.30;;;22.00;99.90;;;;;;4957981;29;20444;-63
2022/10/18 09:06:01;;;;;;;6.63;4.40;;;22.20;99.90;;;;;;4957811;29;20839;-63
2022/10/18 09:08:41;;;;;;;4.40;4.00;;;22.30;99.90;;;;;;4957530;28;20436;-64
2022/10/18 09:11:19;;;;;;;7.83;4.90;;;22.40;99.90;;;;;;4957854;29;20483;-64
2022/10/18 09:14:03;;;;;;;8.83;4.30;;;22.30;99.90;;;;;;4957763;29;20520;-64
2022/10/18 09:16:37;;;;;;;5.60;4.00;;;22.70;99.90;;;;;;4957677;29;20538;-64
2022/10/18 09:19:17;;;;;;;7.50;4.40;;;23.50;99.90;;;;;;4957553;29;20467;-64
2022/10/18 09:21:49;;;;;;;3.90;3.60;;;24.20;99.90;;;;;;4957328;29;21057;-64
2022/10/18 09:24:27;;;;;;;6.90;4.40;;;25.20;99.90;;;;;;4957215;29;20908;-64
2022/10/18 09:26:59;;;;;;;10.57;4.10;;;25.60;99.90;;;;;;4957561;28;20443;-64
2022/10/18 09:29:40;;;;;;;5.80;4.70;;;25.70;99.90;;;;;;4957329;29;20443;-64
2022/10/18 09:32:23;;;;;;;6.50;4.37;;;25.30;99.90;;;;;;4957303;29;20483;-64
2022/10/18 09:34:55;;;;;;;9.77;5.30;;;25.10;99.90;;;;;;4957266;29;20451;-64
2022/10/18 09:37:23;;;;;;;4.73;4.20;;;24.60;99.90;;;;;;4957157;29;20491;-64
2022/10/18 09:40:00;;;;;;;8.13;4.40;;;24.00;99.90;;;;;;4957190;29;20459;-64
2022/10/18 09:42:34;;;;;;;5.20;4.70;;;23.70;99.90;;;;;;4957077;29;20546;-64
2022/10/18 09:45:06;;;;;;;5.60;4.30;;;23.10;99.90;;;;;;4957681;28;20437;-64
2022/10/18 09:47:37;;;;;;;6.03;4.17;;;22.80;99.90;;;;;;4957015;29;20440;-64
2022/10/18 09:50:13;;;;;;;6.20;4.37;;;22.60;99.90;;;;;;4957005;29;20448;-63
2022/10/18 09:52:44;;;;;;;7.70;4.20;;;22.60;99.90;;;;;;4957068;29;20439;-64
2022/10/18 09:55:19;;;;;;;5.13;4.67;;;22.80;99.90;;;;;;4958047;29;20444;-65
2022/10/18 09:57:51;;;;;;;7.93;5.17;;;22.80;99.90;;;;;;4958306;29;20459;-65
2022/10/18 10:00:23;;;;;;;6.97;4.83;;;22.80;99.90;;;;;;4958687;29;20515;-65
2022/10/18 10:02:49;;;;;;;11.40;6.20;;;23.60;99.90;;;;;;4957493;29;20451;-64
2022/10/18 10:05:16;;;;;;;7.27;4.60;;;24.70;99.90;;;;;;4956897;29;20464;-65
2022/10/18 10:07:46;;;;;;;7.70;4.30;;;25.50;99.90;;;;;;4957013;29;20451;-65
2022/10/18 10:10:20;;;;;;;7.70;4.77;;;26.60;99.90;;;;;;4956796;29;20463;-65
2022/10/18 10:12:48;;;;;;;7.63;4.40;;;27.40;99.90;;;;;;4956618;29;21029;-64
2022/10/18 10:15:21;;;;;;;4.57;3.90;;;27.60;99.90;;;;;;4957433;29;20491;-64
2022/10/18 10:17:56;;;;;;;6.23;4.07;;;28.70;99.90;;;;;;4958013;29;21050;-64
2022/10/18 10:20:25;;;;;;;5.23;4.00;;;29.10;99.40;;;;;;4956233;29;20455;-64
2022/10/18 10:22:52;;;;;;;7.77;3.90;;;29.90;98.10;;;;;;4956834;29;20455;-65
2022/10/18 10:25:26;;;;;;;6.07;4.00;;;30.20;95.00;;;;;;4956569;29;20463;-64
2022/10/18 10:27:53;;;;;;;5.57;3.80;;;30.30;95.80;;;;;;4956622;29;20441;-64
2022/10/18 10:30:28;;;;;;;8.73;3.90;;;30.50;93.10;;;;;;4956159;28;20996;-64
2022/10/18 10:32:56;;;;;;;5.93;3.20;;;30.90;93.00;;;;;;4956110;29;20989;-64
2022/10/18 10:35:31;;;;;;;4.73;3.10;;;31.40;91.30;;;;;;4956305;29;20520;-65
2022/10/18 10:37:58;;;;;;;5.23;4.70;;;31.70;91.20;;;;;;4956580;29;20463;-64
2022/10/18 10:40:29;;;;;;;5.73;3.67;;;32.10;89.80;;;;;;4957102;28;20463;-64
2022/10/18 10:43:02;;;;;;;7.80;3.77;;;32.10;88.30;;;;;;4956746;29;20447;-65
2022/10/18 10:45:32;;;;;;;4.00;3.20;;;31.90;88.10;;;;;;4956622;28;20436;-64
2022/10/18 10:48:14;;;;;;;7.60;3.60;;;31.40;86.70;;;;;;4956014;28;20884;-65
2022/10/18 10:50:52;;;;;;;5.83;3.40;;;31.00;90.20;;;;;;4956085;29;20570;-64
2022/10/18 10:53:34;;;;;;;6.27;3.27;;;30.70;90.20;;;;;;4956075;29;20911;-64
2022/10/18 10:56:04;;;;;;;3.60;3.27;;;30.30;91.40;;;;;;4956269;29;20448;-64
2022/10/18 10:58:37;;;;;;;3.87;3.53;;;30.00;92.50;;;;;;4956103;29;20492;-64
2022/10/18 11:01:29;;;;;;;6.47;3.60;;;29.50;92.50;;;;;;4955939;29;20498;-65
2022/10/18 11:03:58;;;;;;;9.13;3.73;;;29.20;93.10;;;;;;4955901;29;20558;-65
2022/10/18 11:06:41;;;;;;;5.83;3.90;;;29.10;95.00;;;;;;4955906;29;20978;-65
2022/10/18 11:09:27;;;;;;;6.63;3.67;;;29.00;94.60;;;;;;4956084;29;20440;-65
2022/10/18 11:12:06;;;;;;;4.60;3.60;;;28.70;95.20;;;;;;4955759;29;20486;-64
2022/10/18 11:14:38;;;;;;;5.90;3.33;;;28.60;94.70;;;;;;4956095;29;20463;-63
2022/10/18 11:17:20;;;;;;;3.77;3.43;;;28.40;97.60;;;;;;4955809;29;20444;-63
2022/10/18 11:20:00;;;;;;;5.00;3.47;;;28.30;96.30;;;;;;4955765;29;20554;-64
2022/10/18 11:22:33;;;;;;;5.17;3.23;;;27.80;96.00;;;;;;4955973;28;20562;-64
2022/10/18 11:25:02;;;;;;;5.57;3.33;;;27.30;95.40;;;;;;4955827;29;20440;-64
2022/10/18 11:27:35;;;;;;;6.23;3.03;;;27.00;96.90;;;;;;4955773;29;20457;-63
2022/10/18 11:30:17;;;;;;;6.67;2.80;;;26.60;97.80;;;;;;4957200;28;20443;-63
2022/10/18 11:32:52;;;;;;;4.43;4.03;;;26.40;97.70;;;;;;4959606;29;20494;-62
2022/10/18 11:35:31;;;;;;;4.27;3.20;;;26.20;98.90;;;;;;4960135;29;20503;-64
2022/10/18 11:38:08;;;;;;;2.90;2.70;;;26.00;99.00;;;;;;4960484;29;20538;-62
2022/10/18 11:40:47;;;;;;;6.70;3.10;;;25.90;99.90;;;;;;4961707;29;20440;-62
2022/10/18 11:43:24;;;;;;;4.10;3.33;;;25.70;99.90;;;;;;4961428;29;20506;-62
2022/10/18 11:45:57;;;;;;;5.80;3.30;;;25.60;99.90;;;;;;4960448;29;20494;-62
2022/10/18 11:48:48;;;;;;;5.40;3.00;;;25.40;99.90;;;;;;4959906;29;20440;-63
2022/10/18 11:51:24;;;;;;;5.60;3.50;;;25.30;99.90;;;;;;4959335;29;20507;-62
2022/10/18 11:54:13;;;;;;;5.23;3.20;;;25.20;99.90;;;;;;4959342;29;20444;-61
2022/10/18 11:56:45;;;;;;;5.60;3.27;;;25.30;99.90;;;;;;4958969;28;21025;-62
2022/10/18 11:59:28;;;;;;;4.80;3.67;;;25.40;99.90;;;;;;4959100;29;20468;-62
2022/10/18 12:02:13;;;;;;;6.07;3.50;;;25.50;99.90;;;;;;4958800;29;20487;-62
2022/10/18 12:04:49;;;;;;;4.10;3.30;;;25.70;99.90;;;;;;4958875;29;20969;-62
2022/10/18 12:07:18;;;;;;;3.30;3.07;;;25.50;99.90;;;;;;4959267;29;20450;-62
2022/10/18 12:09:47;;;;;;;4.73;3.63;;;25.20;99.90;;;;;;4959927;29;20448;-62
2022/10/18 12:12:18;;;;;;;3.90;3.47;;;25.00;99.90;;;;;;4958673;28;20485;-62
2022/10/18 12:14:49;;;;;;;3.77;3.50;;;24.90;99.90;;;;;;4959844;29;20448;-61
2022/10/18 12:17:22;;;;;;;4.30;3.37;;;24.70;99.90;;;;;;4959127;28;20443;-62
2022/10/18 12:19:51;;;;;;;3.73;3.37;;;24.70;99.90;;;;;;4958610;29;20522;-62
2022/10/18 12:22:23;;;;;;;4.83;3.73;;;24.60;99.90;;;;;;4958681;29;20479;-62
2022/10/18 12:24:49;;;;;;;6.27;3.77;;;24.60;99.90;;;;;;4958454;29;20934;-62
2022/10/18 12:27:17;;;;;;;6.93;4.13;;;24.60;99.90;;;;;;4958433;29;20848;-62
2022/10/18 12:29:50;;;;;;;4.47;3.90;;;24.30;99.90;;;;;;4958525;29;20536;-62
2022/10/18 12:32:22;;;;;;;4.57;3.80;;;24.20;99.90;;;;;;4958556;28;20573;-62
2022/10/18 12:34:52;;;;;;;5.23;3.40;;;24.20;99.90;;;;;;4958159;29;20784;-62
2022/10/18 12:38:00;;;;;;;7.27;3.70;;;24.40;99.90;;;;;;4958039;28;20463;-62
2022/10/18 12:40:34;;;;;;;3.87;3.40;;;24.70;99.90;;;;;;4950147;28;20456;-62
2022/10/18 12:43:08;;;;;;;3.23;3.03;;;25.00;99.90;;;;;;4957663;28;20539;-62
2022/10/18 12:45:48;;;;;;;6.80;3.20;;;25.10;99.90;;;;;;4958346;29;20439;-62
2022/10/18 12:48:29;;;;;;;3.20;3.00;;;25.00;99.90;;;;;;4958296;28;20492;-62
2022/10/18 12:50:59;;;;;;;5.13;4.57;;;25.00;99.90;;;;;;4958095;29;20982;-62
2022/10/18 12:53:27;;;;;;;4.47;3.97;;;24.80;99.90;;;;;;4958433;29;20459;-62
2022/10/18 12:55:55;;;;;;;4.03;3.73;;;24.60;99.90;;;;;;4957932;29;20462;-62
2022/10/18 12:58:25;;;;;;;6.60;3.00;;;24.50;99.90;;;;;;4958023;29;20482;-62
2022/10/18 13:00:56;;;;;;;3.23;3.03;;;24.50;99.90;;;;;;4957807;29;20550;-62
2022/10/18 13:03:58;;;;;;;7.60;2.93;;;24.70;99.90;;;;;;4957987;29;20443;-62
2022/10/18 13:06:25;;;;;;;2.50;2.40;;;24.90;99.90;;;;;;4957889;29;20447;-62
2022/10/18 13:09:17;;;;;;;4.13;2.87;;;25.00;99.90;;;;;;4957711;29;20455;-62
2022/10/18 13:11:45;;;;;;;2.60;2.27;;;25.20;99.90;;;;;;4957747;29;20886;-62
2022/10/18 13:14:37;;;;;;;2.83;2.50;;;25.20;99.90;;;;;;4957893;28;20459;-63
2022/10/18 13:17:17;;;;;;;3.97;2.60;;;25.00;99.90;;;;;;4957361;29;20908;-62
2022/10/18 13:20:00;;;;;;;3.33;3.00;;;24.80;99.90;;;;;;4958459;28;20538;-62
2022/10/18 13:22:40;;;;;;;4.80;2.70;;;24.60;99.90;;;;;;4960160;29;20864;-62
2022/10/18 13:25:15;;;;;;;3.17;2.93;;;24.40;99.90;;;;;;4958941;29;20444;-63
2022/10/18 13:27:47;;;;;;;2.90;2.80;;;24.50;99.90;;;;;;4957581;29;20439;-63
2022/10/18 13:30:38;;;;;;;3.27;2.60;;;24.20;99.90;;;;;;4958020;28;20440;-62
2022/10/18 13:33:23;;;;;;;3.57;2.90;;;24.10;99.90;;;;;;4957211;29;20916;-62
2022/10/18 13:35:54;;;;;;;7.40;3.63;;;24.00;99.90;;;;;;4957412;29;20848;-62
2022/10/18 13:38:47;;;;;;;2.63;2.50;;;23.90;99.90;;;;;;4957509;29;20451;-63
2022/10/18 13:41:17;;;;;;;5.40;3.20;;;23.90;99.90;;;;;;4957438;29;20534;-62
2022/10/18 13:44:22;;;;;;;5.83;3.70;;;23.80;99.90;;;;;;4957156;28;20459;-62
2022/10/18 13:47:35;;;;;;;4.30;3.80;;;23.70;99.90;;;;;;4956969;29;20442;-62
2022/10/18 13:50:40;;;;;;;4.27;3.10;;;23.60;99.90;;;;;;4957586;28;20908;-62
2022/10/18 13:53:30;;;;;;;4.17;3.50;;;23.50;99.90;;;;;;4956563;28;20459;-62
2022/10/18 13:56:15;;;;;;;3.87;3.40;;;23.50;99.90;;;;;;4956826;29;20439;-62
2022/10/18 13:58:55;;;;;;;5.97;3.83;;;23.50;99.90;;;;;;4956470;29;20993;-62
2022/10/18 14:01:31;;;;;;;6.93;3.57;;;23.20;99.90;;;;;;4956727;29;20587;-62
2022/10/18 14:04:27;;;;;;;14.80;4.17;;;23.20;99.90;;;;;;4956645;29;20452;-62
2022/10/18 14:06:57;;;;;;;3.50;3.17;;;23.10;99.90;;;;;;4951610;28;20510;-62
2022/10/18 14:09:28;;;;;;;6.10;3.57;;;23.10;99.90;;;;;;4956657;29;20432;-62
2022/10/18 14:12:01;;;;;;;5.83;3.30;;;23.20;99.90;;;;;;4956671;29;20886;-62
2022/10/18 14:14:33;;;;;;;5.30;3.00;;;23.10;99.90;;;;;;4956603;29;20436;-62
2022/10/18 14:17:06;;;;;;;4.20;3.17;;;23.10;99.90;;;;;;4957302;29;20483;-62
2022/10/18 14:19:38;;;;;;;5.20;3.23;;;23.10;99.90;;;;;;4956175;29;20993;-62
2022/10/18 14:22:13;;;;;;;3.70;3.40;;;23.00;99.90;;;;;;4956437;29;20486;-62
2022/10/18 14:24:45;;;;;;;5.67;3.10;;;23.10;99.90;;;;;;4956478;29;20782;-62
2022/10/18 14:27:18;;;;;;;3.70;2.93;;;23.00;99.90;;;;;;4956400;29;20448;-62
2022/10/18 14:29:45;;;;;;;5.50;2.80;;;22.90;99.90;;;;;;4956532;29;20491;-63
2022/10/18 14:32:26;;;;;;;3.07;2.77;;;22.70;99.90;;;;;;4956370;29;20487;-63
2022/10/18 14:34:53;;;;;;;3.30;2.70;;;22.50;99.90;;;;;;4956590;29;20446;-63
2022/10/18 14:37:27;;;;;;;5.40;3.10;;;22.40;99.90;;;;;;4956525;29;20459;-63
2022/10/18 14:39:55;;;;;;;3.20;2.80;;;22.40;99.90;;;;;;4956234;29;20967;-63
2022/10/18 14:42:24;;;;;;;5.23;3.20;;;22.40;99.90;;;;;;4956528;28;20472;-63
2022/10/18 14:44:51;;;;;;;5.53;4.10;;;22.30;99.90;;;;;;4956161;29;20467;-63
2022/10/18 14:47:22;;;;;;;4.93;2.93;;;22.20;99.90;;;;;;4956295;29;20460;-63
2022/10/18 14:49:52;;;;;;;3.20;3.00;;;22.20;99.90;;;;;;4956071;29;20436;-63
2022/10/18 14:52:21;;;;;;;3.30;3.10;;;22.20;99.90;;;;;;4956400;29;20578;-63
2022/10/18 14:54:48;;;;;;;4.97;3.70;;;22.10;99.90;;;;;;4956440;29;20502;-63
2022/10/18 14:57:22;;;;;;;3.10;2.90;;;22.10;99.90;;;;;;4956185;29;20459;-62
2022/10/18 14:59:51;;;;;;;3.53;3.23;;;22.00;99.90;;;;;;4955801;29;20837;-63
2022/10/18 15:02:22;;;;;;;3.63;3.40;;;22.00;99.90;;;;;;4955930;28;20483;-63
2022/10/18 15:04:56;;;;;;;5.30;3.83;;;21.90;99.90;;;;;;4955882;28;20483;-63
2022/10/18 15:07:24;;;;;;;3.73;3.30;;;21.90;99.90;;;;;;4956349;28;20471;-62
2022/10/18 15:09:51;;;;;;;3.80;3.43;;;21.80;99.90;;;;;;4956828;28;20530;-64
2022/10/18 15:12:20;;;;;;;4.20;3.90;;;21.80;99.90;;;;;;4956196;28;20475;-63
2022/10/18 15:14:47;;;;;;;5.20;3.70;;;21.80;99.90;;;;;;4955678;29;20862;-63
2022/10/18 15:17:19;;;;;;;3.63;3.33;;;21.80;99.90;;;;;;4954909;29;20452;-63
2022/10/18 15:19:55;;;;;;;14.20;4.20;;;21.80;99.90;;;;;;4956398;29;21037;-63
2022/10/18 15:22:23;;;;;;;5.70;4.20;;;21.70;99.90;;;;;;4956468;29;20517;-63
2022/10/18 15:25:08;;;;;;;4.00;3.80;;;21.60;99.90;;;;;;4956294;28;20870;-63
2022/10/18 15:27:38;;;;;;;3.80;3.60;;;21.60;99.90;;;;;;4956792;29;20848;-63
2022/10/18 15:30:09;;;;;;;5.37;4.07;;;21.50;99.90;;;;;;4956368;29;20447;-64
2022/10/18 15:32:36;;;;;;;4.80;4.20;;;21.40;99.90;;;;;;4956164;28;20991;-63
2022/10/18 15:35:08;;;;;;;7.17;3.97;;;21.40;99.90;;;;;;4955941;29;20938;-63
2022/10/18 15:37:40;;;;;;;4.40;4.17;;;21.30;99.90;;;;;;4956955;29;20530;-63
2022/10/18 15:40:37;;;;;;;4.20;3.90;;;21.30;99.90;;;;;;4956102;29;20464;-62
2022/10/18 15:43:26;;;;;;;6.63;4.40;;;21.30;99.90;;;;;;4955648;29;20464;-63
2022/10/18 15:45:54;;;;;;;4.40;4.07;;;21.20;99.90;;;;;;4955569;29;20459;-63
2022/10/18 15:48:24;;;;;;;4.03;3.83;;;21.10;99.90;;;;;;4955760;28;20459;-63
2022/10/18 15:50:52;;;;;;;4.63;4.30;;;21.10;99.90;;;;;;4955394;28;20534;-63
2022/10/18 15:53:46;;;;;;;4.23;3.83;;;21.10;99.90;;;;;;4955491;29;20436;-63
2022/10/18 15:56:27;;;;;;;4.20;3.90;;;21.00;99.90;;;;;;4955416;29;20443;-63
2022/10/18 15:58:57;;;;;;;4.67;4.27;;;21.00;99.90;;;;;;4956107;29;20444;-63
2022/10/18 16:01:31;;;;;;;4.60;4.30;;;21.00;99.90;;;;;;4957069;29;20574;-63
2022/10/18 16:03:59;;;;;;;4.50;4.03;;;21.00;99.90;;;;;;4956907;29;20546;-63
2022/10/18 16:06:26;;;;;;;4.70;4.40;;;21.00;99.90;;;;;;4957483;28;20511;-63
2022/10/18 16:08:53;;;;;;;3.87;3.57;;;21.00;99.90;;;;;;4956231;28;21014;-64
2022/10/18 16:11:23;;;;;;;4.20;3.90;;;20.90;99.90;;;;;;4957127;28;20488;-63
2022/10/18 16:13:50;;;;;;;4.10;3.83;;;20.90;99.90;;;;;;4956818;29;20871;-63
2022/10/18 16:16:21;;;;;;;4.10;3.80;;;20.90;99.90;;;;;;4957426;28;20459;-62
2022/10/18 16:18:49;;;;;;;4.53;4.10;;;20.80;99.90;;;;;;4960115;29;20501;-60
2022/10/18 16:21:19;;;;;;;4.33;4.03;;;20.70;99.90;;;;;;4960330;29;20487;-61
2022/10/18 16:23:46;;;;;;;5.13;4.73;;;20.70;99.90;;;;;;4961000;29;20440;-62
2022/10/18 16:26:15;;;;;;;4.83;4.27;;;20.70;99.90;;;;;;4960289;29;20456;-64
2022/10/18 16:28:43;;;;;;;4.90;4.60;;;20.70;99.90;;;;;;4958406;28;20947;-62
2022/10/18 16:31:15;;;;;;;4.73;4.13;;;20.60;99.90;;;;;;4958505;29;20621;-62
2022/10/18 16:33:43;;;;;;;4.63;4.27;;;20.60;99.90;;;;;;4958584;29;20443;-62
2022/10/18 16:36:14;;;;;;;5.07;4.77;;;20.50;99.90;;;;;;4958570;29;20527;-62
2022/10/18 16:38:40;;;;;;;4.23;3.93;;;20.50;99.90;;;;;;4958840;29;20495;-61
2022/10/18 16:41:08;;;;;;;4.77;4.50;;;20.40;99.90;;;;;;4958371;29;20483;-61
2022/10/18 16:43:35;;;;;;;6.97;4.87;;;20.40;99.90;;;;;;4958478;29;20463;-61
2022/10/18 16:46:03;;;;;;;5.33;4.83;;;20.40;99.90;;;;;;4958283;29;20460;-61
2022/10/18 16:48:29;;;;;;;5.40;5.00;;;20.40;99.90;;;;;;4958485;29;20451;-61
2022/10/18 16:50:58;;;;;;;5.00;4.60;;;20.30;99.90;;;;;;4958296;29;20479;-64
2022/10/18 16:53:26;;;;;;;5.30;4.80;;;20.30;99.90;;;;;;4958771;29;20620;-62
2022/10/18 16:55:55;;;;;;;5.67;5.07;;;20.30;99.90;;;;;;4958442;28;20543;-61
2022/10/18 16:58:22;;;;;;;5.03;4.50;;;20.20;99.90;;;;;;4958179;29;20460;-61
2022/10/18 17:00:49;;;;;;;8.10;5.87;;;20.20;99.90;;;;;;4958088;29;20502;-62
2022/10/18 17:03:16;;;;;;;4.70;4.40;;;20.20;99.90;;;;;;4958269;29;20451;-61
2022/10/18 17:05:43;;;;;;;5.07;4.73;;;20.20;99.90;;;;;;4958526;29;20455;-62
2022/10/18 17:08:19;;;;;;;5.10;4.70;;;20.20;99.90;;;;;;4957850;28;20538;-61